Time;durP1;ratioP1;P1;durP2;ratioP2;P2;SDS_P1;SDS_P2;PMS_P1;PMS_P2;Temp;Humidity;BMP_temperature;BMP_pressure;BME280_temperature;BME280_humidity;BME280_pressure;Samples;Min_cycle;Max_cycle;Signal;HPM_P1;HPM_P2
2022/09/03 00:01:18;;;;;;;7.55;2.10;;;;;;;12.57;67.88;100862.06;10440436;28;20071;-78
2022/09/03 00:06:47;;;;;;;3.70;2.10;;;;;;;12.58;68.16;100875.25;10423320;28;20067;-78
2022/09/03 00:12:14;;;;;;;3.95;2.03;;;;;;;12.52;68.38;100869.75;10436545;28;20651;-78
2022/09/03 00:17:17;;;;;;;4.88;3.00;;;;;;;12.71;68.23;100867.84;10439675;28;20119;-78
2022/09/03 00:22:20;;;;;;;4.50;2.45;;;;;;;12.67;68.20;100865.94;10406141;28;20131;-78
2022/09/03 00:27:25;;;;;;;4.53;2.42;;;;;;;12.47;67.76;100863.41;10423560;28;20451;-77
2022/09/03 00:32:46;;;;;;;5.15;2.28;;;;;;;12.41;68.03;100857.94;10422703;28;20083;-77
2022/09/03 00:37:47;;;;;;;6.75;4.10;;;;;;;12.53;67.23;100860.16;10427547;28;20477;-78
2022/09/03 00:43:01;;;;;;;5.03;2.83;;;;;;;12.52;67.70;100867.13;10447938;28;20041;-77
2022/09/03 00:48:05;;;;;;;5.28;3.55;;;;;;;12.48;67.90;100866.13;10433110;28;20033;-77
2022/09/03 00:53:39;;;;;;;7.00;2.20;;;;;;;12.45;67.44;100870.34;10448134;28;20124;-77
2022/09/03 00:58:46;;;;;;;5.43;2.60;;;;;;;12.45;68.45;100868.63;10446874;28;20122;-78
2022/09/03 01:03:50;;;;;;;4.00;1.80;;;;;;;12.34;68.04;100868.19;10447345;28;20048;-78
2022/09/03 01:09:00;;;;;;;4.22;3.25;;;;;;;12.24;68.12;100865.13;10447498;28;20475;-78
2022/09/03 01:14:18;;;;;;;9.15;4.03;;;;;;;12.32;67.18;100861.09;10445014;28;20052;-77
2022/09/03 01:19:31;;;;;;;3.75;2.05;;;;;;;12.34;67.96;100865.56;10448158;28;20514;-78
2022/09/03 01:24:50;;;;;;;3.30;2.53;;;;;;;12.27;68.55;100863.50;10447432;28;20128;-78
2022/09/03 01:30:01;;;;;;;4.22;2.33;;;;;;;12.23;67.84;100865.97;10445547;28;20037;-78
2022/09/03 01:35:30;;;;;;;5.63;2.47;;;;;;;12.48;66.24;100859.97;10405863;28;20037;-78
2022/09/03 01:40:46;;;;;;;3.53;3.05;;;;;;;12.41;67.70;100855.31;10369572;28;20044;-78
2022/09/03 01:45:59;;;;;;;3.90;2.10;;;;;;;12.42;67.19;100862.34;10445205;28;20469;-78
2022/09/03 01:51:27;;;;;;;4.03;2.22;;;;;;;12.38;67.63;100860.44;10443743;28;20029;-79
2022/09/03 01:56:39;;;;;;;6.13;2.70;;;;;;;12.30;67.54;100861.00;10445295;28;20033;-79
2022/09/03 02:01:46;;;;;;;2.67;1.80;;;;;;;12.41;67.11;100856.22;10445390;28;20076;-78
2022/09/03 02:06:47;;;;;;;9.32;2.90;;;;;;;12.48;66.32;100854.72;10426811;28;20127;-78
2022/09/03 02:11:58;;;;;;;11.93;2.73;;;;;;;12.51;67.61;100852.22;10425984;28;20159;-78
2022/09/03 02:16:59;;;;;;;5.88;2.67;;;;;;;12.36;66.98;100849.88;10444198;28;20048;-78
2022/09/03 02:21:59;;;;;;;6.78;2.08;;;;;;;12.39;67.40;100854.34;10441283;28;20370;-79
2022/09/03 02:27:01;;;;;;;9.80;2.53;;;;;;;12.46;67.78;100857.28;10425882;28;20041;-79
2022/09/03 02:32:02;;;;;;;2.92;1.65;;;;;;;12.32;68.35;100854.09;10444040;28;20130;-79
2022/09/03 02:37:11;;;;;;;4.88;2.20;;;;;;;12.14;68.25;100853.34;10442249;28;20033;-79
2022/09/03 02:42:15;;;;;;;4.22;2.70;;;;;;;12.24;68.30;100859.88;10427285;28;20041;-77
2022/09/03 02:47:19;;;;;;;5.80;3.13;;;;;;;12.24;68.43;100846.78;10443266;28;20044;-78
2022/09/03 02:52:20;;;;;;;9.75;2.22;;;;;;;12.13;68.83;100849.84;10442315;28;20033;-77
2022/09/03 02:57:20;;;;;;;3.97;2.22;;;;;;;12.02;69.49;100851.13;10442874;28;20036;-77
2022/09/03 03:02:21;;;;;;;5.82;2.70;;;;;;;11.93;69.19;100854.22;10442536;28;20044;-77
2022/09/03 03:07:21;;;;;;;6.05;2.00;;;;;;;11.92;69.42;100847.19;10458172;28;20056;-79
2022/09/03 03:12:22;;;;;;;4.43;2.55;;;;;;;11.90;70.22;100846.22;10460210;28;20500;-78
2022/09/03 03:17:22;;;;;;;3.25;2.05;;;;;;;11.87;69.67;100848.72;10445729;28;20036;-78
2022/09/03 03:22:23;;;;;;;5.50;3.08;;;;;;;11.97;69.47;100848.28;10457096;28;20060;-77
2022/09/03 03:27:23;;;;;;;4.45;2.15;;;;;;;12.04;68.13;100844.22;10451878;28;20051;-77
2022/09/03 03:32:25;;;;;;;6.00;2.83;;;;;;;12.16;68.40;100841.19;10463779;28;20336;-77
2022/09/03 03:37:25;;;;;;;7.30;1.98;;;;;;;12.10;70.16;100840.94;10431474;28;20630;-78
2022/09/03 03:42:26;;;;;;;5.75;2.25;;;;;;;12.12;68.68;100842.81;10445270;28;20047;-77
2022/09/03 03:47:27;;;;;;;6.95;2.00;;;;;;;12.01;70.10;100849.34;10440461;28;20129;-77
2022/09/03 03:52:28;;;;;;;11.20;2.70;;;;;;;11.98;69.61;100842.19;10443614;28;20033;-77
2022/09/03 03:57:29;;;;;;;10.88;2.30;;;;;;;12.04;69.28;100834.63;10444318;28;20477;-77
2022/09/03 04:02:30;;;;;;;6.75;2.35;;;;;;;12.23;68.68;100839.72;10423415;28;20102;-77
2022/09/03 04:07:30;;;;;;;6.90;1.85;;;;;;;12.10;70.17;100833.06;10448133;28;20110;-77
2022/09/03 04:12:32;;;;;;;5.78;2.30;;;;;;;12.08;68.96;100829.50;10462536;28;20105;-78
2022/09/03 04:17:32;;;;;;;12.90;3.72;;;;;;;12.17;69.23;100836.03;10461848;28;22195;-79
2022/09/03 04:22:33;;;;;;;6.72;2.95;;;;;;;12.23;68.45;100845.84;10448685;28;20064;-77
2022/09/03 04:27:40;;;;;;;5.47;2.72;;;;;;;12.32;68.27;100835.72;10452644;28;20033;-80
2022/09/03 04:32:53;;;;;;;5.70;2.95;;;;;;;12.27;68.64;100844.28;10450661;28;20052;-79
2022/09/03 04:37:54;;;;;;;8.90;2.88;;;;;;;12.30;69.67;100847.03;10486507;28;20033;-79
2022/09/03 04:42:58;;;;;;;3.67;2.22;;;;;;;12.38;68.74;100840.34;10474682;28;20032;-78
2022/09/03 04:48:02;;;;;;;5.80;3.05;;;;;;;12.47;67.77;100845.06;10488045;28;20076;-78
2022/09/03 04:53:03;;;;;;;2.97;1.73;;;;;;;12.53;67.99;100840.03;10466674;28;20388;-78
2022/09/03 04:58:04;;;;;;;6.38;1.88;;;;;;;12.47;69.89;100843.34;10488069;28;20044;-78
2022/09/03 05:03:04;;;;;;;4.40;1.90;;;;;;;12.47;69.74;100842.44;10464448;28;20519;-78
2022/09/03 05:08:06;;;;;;;4.18;1.80;;;;;;;12.68;68.23;100836.22;10483084;28;20054;-78
2022/09/03 05:13:06;;;;;;;4.05;2.08;;;;;;;12.80;68.68;100838.44;10449412;28;20172;-78
2022/09/03 05:18:07;;;;;;;4.63;2.47;;;;;;;12.99;67.05;100840.91;10439134;28;20509;-78
2022/09/03 05:23:07;;;;;;;4.10;1.58;;;;;;;13.19;67.85;100843.38;10424798;28;20562;-78
2022/09/03 05:28:08;;;;;;;5.43;1.77;;;;;;;13.37;67.93;100848.41;10431566;28;20072;-78
2022/09/03 05:33:08;;;;;;;3.95;2.78;;;;;;;13.67;65.31;100837.22;10406770;28;20038;-79
2022/09/03 05:38:09;;;;;;;3.17;1.50;;;;;;;14.04;62.68;100843.72;10434402;28;20136;-81
2022/09/03 05:43:10;;;;;;;3.60;1.75;;;;;;;14.23;62.11;100844.31;10425909;28;20207;-79
2022/09/03 05:48:10;;;;;;;4.15;1.55;;;;;;;14.42;62.71;100844.91;10401555;28;20036;-79
2022/09/03 05:53:11;;;;;;;4.50;2.38;;;;;;;14.67;62.26;100828.13;10383239;28;20457;-79
2022/09/03 05:58:11;;;;;;;3.53;2.13;;;;;;;14.94;60.71;100838.63;10394171;28;20041;-79
2022/09/03 06:03:12;;;;;;;3.70;1.98;;;;;;;15.89;59.52;100835.94;10445906;28;20116;-81
2022/09/03 06:08:12;;;;;;;3.22;1.63;;;;;;;17.60;54.70;100837.88;10476843;28;20060;-81
2022/09/03 06:13:13;;;;;;;7.43;1.60;;;;;;;19.22;49.67;100841.25;10477744;28;20061;-79
2022/09/03 06:18:13;;;;;;;2.03;1.30;;;;;;;21.00;44.34;100834.69;10444086;28;20090;-81
2022/09/03 06:23:14;;;;;;;3.90;1.60;;;;;;;22.39;41.53;100842.88;10443877;28;20041;-80
2022/09/03 06:28:14;;;;;;;4.13;1.27;;;;;;;22.90;38.40;100832.97;10444882;28;20124;-80
2022/09/03 06:33:17;;;;;;;4.97;1.27;;;;;;;23.71;36.44;100834.31;10442978;28;20080;-81
2022/09/03 06:38:18;;;;;;;5.13;1.48;;;;;;;24.12;36.68;100829.59;10442432;28;20037;-82
2022/09/03 06:43:19;;;;;;;2.78;1.45;;;;;;;24.58;36.42;100830.00;10443608;28;20044;-81
2022/09/03 06:48:19;;;;;;;4.20;1.30;;;;;;;24.72;34.77;100830.75;10443776;28;20392;-81
2022/09/03 06:53:22;;;;;;;2.73;1.50;;;;;;;23.94;35.39;100827.91;10434034;28;20041;-80
2022/09/03 06:58:23;;;;;;;5.97;1.63;;;;;;;24.86;34.72;100821.69;10447766;28;20170;-80
2022/09/03 07:03:24;;;;;;;6.25;2.30;;;;;;;24.29;33.60;100841.91;10442160;28;20040;-78
2022/09/03 07:08:25;;;;;;;10.37;3.03;;;;;;;22.67;38.38;100833.94;10444805;28;20123;-78
2022/09/03 07:13:25;;;;;;;4.70;1.25;;;;;;;22.68;37.53;100833.97;10443324;28;20033;-78
2022/09/03 07:18:26;;;;;;;4.33;1.60;;;;;;;22.08;39.18;100840.25;10442337;28;20061;-79
2022/09/03 07:23:27;;;;;;;4.80;1.70;;;;;;;22.90;37.76;100840.97;10442661;28;20111;-79
2022/09/03 07:28:28;;;;;;;2.63;1.73;;;;;;;23.86;36.07;100843.13;10423454;28;20033;-77
2022/09/03 07:33:29;;;;;;;3.47;1.20;;;;;;;25.89;32.65;100832.75;10441096;28;20033;-77
2022/09/03 07:38:30;;;;;;;;;;;;;;;27.00;30.91;100830.72;10441704;28;20430;-75
2022/09/03 07:43:45;;;;;;;4.13;1.40;;;;;;;26.90;31.19;100830.03;10442931;28;19999;-76
2022/09/03 07:48:47;;;;;;;3.60;1.45;;;;;;;28.43;28.78;100831.75;10439884;28;20041;-75
2022/09/03 07:53:48;;;;;;;6.90;1.20;;;;;;;28.04;28.82;100821.13;10439185;28;20029;-79
2022/09/03 07:58:48;;;;;;;2.87;1.50;;;;;;;26.14;31.08;100826.97;10440046;28;20477;-77
2022/09/03 08:03:51;;;;;;;12.57;1.63;;;;;;;24.97;33.14;100833.16;10439467;28;20033;-76
2022/09/03 08:09:00;;;;;;;6.18;1.45;;;;;;;24.37;35.00;100845.41;10438976;28;20458;-76
2022/09/03 08:14:05;;;;;;;2.50;1.10;;;;;;;24.82;34.08;100836.03;10440028;28;20548;-77
2022/09/03 08:19:06;;;;;;;2.63;1.48;;;;;;;25.02;33.93;100851.81;10439575;28;20044;-76
2022/09/03 08:24:06;;;;;;;5.95;1.80;;;;;;;24.22;34.91;100857.09;10440382;28;20120;-76
2022/09/03 08:29:07;;;;;;;2.17;1.20;;;;;;;23.54;35.90;100858.50;10439021;28;20512;-77
2022/09/03 08:34:10;;;;;;;5.60;1.90;;;;;;;23.16;36.59;100864.91;10440798;28;20044;-75
2022/09/03 08:39:11;;;;;;;7.53;3.38;;;;;;;23.49;37.48;100864.75;10440592;28;20045;-78
2022/09/03 08:44:38;;;;;;;2.97;1.83;;;;;;;24.34;36.70;100865.00;10439239;28;20045;-79
2022/09/03 08:49:58;;;;;;;2.75;1.30;;;;;;;25.76;34.74;100856.16;10397233;28;20423;-77
2022/09/03 08:55:15;;;;;;;6.63;1.77;;;;;;;28.64;28.97;100855.44;10440718;28;20037;-76
2022/09/03 09:00:15;;;;;;;3.10;1.58;;;;;;;29.98;26.77;100857.69;10426513;28;20045;-76
2022/09/03 09:05:19;;;;;;;5.72;1.88;;;;;;;31.89;24.54;100856.94;10446996;28;20128;-76
2022/09/03 09:10:55;;;;;;;8.45;1.83;;;;;;;32.50;24.42;100855.25;10444981;28;20033;-76
2022/09/03 09:16:05;;;;;;;6.57;2.25;;;;;;;32.88;22.47;100857.19;10456186;28;20037;-76
2022/09/03 09:21:15;;;;;;;4.97;1.60;;;;;;;31.98;24.94;100858.38;10447237;28;20041;-77
2022/09/03 09:26:17;;;;;;;4.93;1.30;;;;;;;32.32;24.09;100862.38;10425875;28;20042;-74
2022/09/03 09:31:19;;;;;;;7.28;2.35;;;;;;;32.32;23.90;100853.34;10412804;28;20043;-76
2022/09/03 09:36:22;;;;;;;8.05;2.45;;;;;;;32.69;23.50;100858.97;10443834;28;20094;-76
2022/09/03 09:41:23;;;;;;;;;;;;;;;32.54;23.22;100863.22;10444502;28;20114;-75
2022/09/03 09:46:25;;;;;;;3.22;1.30;;;;;;;31.17;24.28;100858.00;10446295;28;19924;-77
2022/09/03 09:51:30;;;;;;;2.72;1.60;;;;;;;31.05;24.75;100862.91;10444464;28;20397;-76
2022/09/03 09:56:30;;;;;;;7.85;2.85;;;;;;;32.28;23.16;100851.69;10445544;28;20136;-80
2022/09/03 10:01:31;;;;;;;3.10;1.60;;;;;;;33.18;22.97;100848.56;10443629;28;20049;-77
2022/09/03 10:12:04;;;;;;;3.22;1.83;;;;;;;33.34;23.10;100840.56;10475679;28;19924;-79
2022/09/03 10:17:30;;;;;;;9.20;2.47;;;;;;;32.76;24.57;100847.75;10445108;28;20068;-80
2022/09/03 10:22:30;;;;;;;2.60;1.50;;;;;;;33.91;21.83;100847.72;10459707;28;20044;-81
2022/09/03 10:27:31;;;;;;;;;;;;;;;33.85;22.66;100849.91;10425330;28;20057;-86
2022/09/03 10:32:44;;;;;;;9.03;2.17;;;;;;;33.82;22.50;100845.50;10445606;28;19916;-82
2022/09/03 10:37:54;;;;;;;3.63;1.92;;;;;;;34.45;22.42;100840.50;10442752;28;20116;-80
2022/09/03 10:43:14;;;;;;;3.60;1.95;;;;;;;33.58;23.11;100844.91;10442128;28;20029;-81
2022/09/03 10:48:28;;;;;;;3.58;1.73;;;;;;;33.93;22.72;100840.44;10426613;28;20048;-80
2022/09/03 10:54:06;;;;;;;3.38;2.00;;;;;;;32.89;24.95;100837.28;10443116;28;20056;-80
2022/09/03 10:59:34;;;;;;;8.20;2.00;;;;;;;33.30;23.42;100836.25;10402970;28;20045;-81
2022/09/03 11:04:57;;;;;;;4.70;1.95;;;;;;;33.44;24.21;100843.75;10440230;28;20033;-81
2022/09/03 11:10:17;;;;;;;3.08;1.90;;;;;;;34.11;22.92;100837.72;10427050;28;20045;-78
2022/09/03 11:15:24;;;;;;;7.13;2.63;;;;;;;32.86;24.13;100837.44;10459723;28;20037;-81
2022/09/03 11:20:25;;;;;;;5.97;2.28;;;;;;;33.16;23.82;100831.50;10439212;28;20485;-81
2022/09/03 11:25:37;;;;;;;4.93;2.15;;;;;;;33.86;23.52;100833.53;10440226;28;20033;-81
2022/09/03 11:30:39;;;;;;;2.80;1.88;;;;;;;33.32;24.25;100822.63;10440555;28;20041;-79
2022/09/03 11:35:40;;;;;;;2.92;2.20;;;;;;;33.88;23.87;100819.88;10441325;28;20497;-81
2022/09/03 11:41:01;;;;;;;;;;;;;;;33.40;23.89;100815.03;10428361;28;20098;-81
2022/09/03 11:46:03;;;;;;;5.00;2.13;;;;;;;33.66;24.65;100815.56;10360758;28;19936;-82
2022/09/03 11:51:14;;;;;;;3.85;2.58;;;;;;;32.22;25.10;100817.66;10437787;28;20469;-82
2022/09/03 11:56:18;;;;;;;4.68;2.83;;;;;;;32.97;24.80;100812.50;10425508;28;20550;-82
2022/09/03 12:01:18;;;;;;;5.43;3.25;;;;;;;33.23;24.03;100808.56;10441875;28;20044;-82
2022/09/03 12:06:42;;;;;;;8.75;2.78;;;;;;;33.80;24.12;100806.69;10438741;28;20557;-78
2022/09/03 12:12:10;;;;;;;6.30;2.88;;;;;;;33.23;24.41;100800.44;10442657;28;20401;-82
2022/09/03 12:17:26;;;;;;;8.35;2.65;;;;;;;32.76;24.40;100807.13;10439338;28;20366;-81
2022/09/03 12:22:27;;;;;;;3.90;2.17;;;;;;;33.94;25.76;100814.19;10442027;28;20041;-81
2022/09/03 12:27:31;;;;;;;6.93;2.47;;;;;;;34.29;24.21;100808.72;10439529;28;20037;-81
2022/09/03 12:32:36;;;;;;;3.00;1.63;;;;;;;35.01;22.69;100807.63;10441705;28;20037;-81
2022/09/03 12:37:37;;;;;;;2.83;1.73;;;;;;;34.01;23.69;100812.91;10430976;28;20041;-81
2022/09/03 12:42:37;;;;;;;3.75;2.13;;;;;;;34.30;23.69;100806.88;10449285;28;20041;-81
2022/09/03 12:47:38;;;;;;;6.60;2.17;;;;;;;34.00;24.79;100800.28;10445946;28;20400;-81
2022/09/03 12:53:02;;;;;;;;;;;;;;;33.37;25.01;100802.44;10449240;28;20287;-79
2022/09/03 12:58:02;;;;;;;4.38;1.83;;;;;;;33.10;24.59;100799.28;10404070;28;19927;-81
2022/09/03 13:03:11;;;;;;;4.73;1.70;;;;;;;33.27;25.51;100795.72;10407715;28;20034;-80
2022/09/03 13:08:20;;;;;;;4.43;1.90;;;;;;;35.16;22.93;100793.16;10428264;28;20122;-80
2022/09/03 13:13:28;;;;;;;7.10;2.63;;;;;;;35.66;22.18;100798.50;10447737;28;20090;-80
2022/09/03 13:18:44;;;;;;;2.72;1.80;;;;;;;35.99;21.52;100794.75;10405201;28;20045;-82
2022/09/03 13:24:18;;;;;;;6.60;2.00;;;;;;;34.95;22.43;100796.13;10408660;28;20045;-80
2022/09/03 13:29:38;;;;;;;5.18;2.40;;;;;;;35.63;22.00;100796.81;10446185;28;20584;-81
2022/09/03 13:34:41;;;;;;;3.53;1.42;;;;;;;35.04;23.16;100794.72;10428848;28;20037;-81
2022/09/03 13:39:51;;;;;;;16.73;2.47;;;;;;;33.75;24.45;100787.97;10444516;28;20033;-83
2022/09/03 13:45:15;;;;;;;4.97;1.73;;;;;;;34.70;24.02;100789.34;10460349;28;20071;-81
2022/09/03 13:50:21;;;;;;;2.97;1.92;;;;;;;33.95;24.58;100786.06;10476921;28;20045;-81
2022/09/03 13:55:45;;;;;;;3.80;1.70;;;;;;;32.96;25.35;100786.38;10460937;28;20041;-83
2022/09/03 14:01:02;;;;;;;4.18;2.22;;;;;;;33.23;25.34;100789.59;10430858;28;20480;-81
2022/09/03 14:06:13;;;;;;;2.45;1.63;;;;;;;35.03;23.66;100784.81;10444045;28;20041;-82
2022/09/03 14:11:20;;;;;;;;;;;;;;;35.01;23.14;100784.03;10462382;28;20087;-82
2022/09/03 14:16:33;;;;;;;2.90;1.80;;;;;;;33.45;26.01;100784.94;10442660;28;19921;-80
2022/09/03 14:21:46;;;;;;;3.90;1.52;;;;;;;35.18;23.56;100801.22;10442886;28;20120;-81
2022/09/03 14:27:01;;;;;;;5.53;2.30;;;;;;;34.59;23.74;100796.31;10443934;28;20048;-81
2022/09/03 14:32:04;;;;;;;3.85;1.70;;;;;;;34.33;24.01;100787.69;10460242;28;20048;-81
2022/09/03 14:37:34;;;;;;;4.35;2.10;;;;;;;33.80;24.32;100795.84;10442741;28;20044;-82
2022/09/03 14:42:43;;;;;;;3.58;1.95;;;;;;;34.76;24.49;100789.97;10411649;28;20041;-81
2022/09/03 14:48:08;;;;;;;3.35;1.77;;;;;;;32.74;26.83;100789.19;10444149;28;20051;-81
2022/09/03 14:53:36;;;;;;;4.47;1.98;;;;;;;29.93;30.17;100798.50;10441594;28;20906;-80
2022/09/03 14:59:08;;;;;;;6.03;2.10;;;;;;;27.97;33.44;100801.59;10440664;28;20371;-81
2022/09/03 15:04:23;;;;;;;;;;;;;;;26.67;36.87;100801.84;10428435;28;20056;-80
2022/09/03 15:09:39;;;;;;;4.05;2.42;;;;;;;26.03;37.60;100800.31;10442590;28;20392;-80
2022/09/03 15:14:55;;;;;;;5.63;2.60;;;;;;;26.00;39.07;100808.41;10441598;28;20032;-78
2022/09/03 15:20:00;;;;;;;18.20;12.65;;;;;;;25.80;41.37;100806.94;10423432;28;20500;-78
2022/09/03 15:25:22;;;;;;;11.25;7.60;;;;;;;27.17;37.01;100800.81;10409336;28;20039;-78
2022/09/03 15:30:22;;;;;;;13.70;11.73;;;;;;;27.71;35.45;100807.59;10444616;28;20041;-78
2022/09/03 15:35:44;;;;;;;6.37;4.33;;;;;;;27.18;37.22;100811.50;10409767;28;20061;-77
2022/09/03 15:40:44;;;;;;;;;;;;;;;27.22;36.78;100809.66;10434865;28;20045;-77
2022/09/03 15:45:47;;;;;;;5.87;1.93;;;;;;;26.76;37.77;100812.38;10466315;28;19974;-77
2022/09/03 15:50:49;;;;;;;6.32;2.70;;;;;;;26.43;38.42;100812.16;10448996;28;20382;-77
2022/09/03 15:56:13;;;;;;;4.28;2.88;;;;;;;26.13;38.83;100816.22;10440158;28;20037;-78
2022/09/03 16:01:31;;;;;;;4.88;3.20;;;;;;;25.77;41.55;100814.19;10432862;28;20424;-77
2022/09/03 16:06:43;;;;;;;3.38;2.20;;;;;;;25.54;40.37;100817.22;10436127;28;20115;-77
2022/09/03 16:12:09;;;;;;;5.95;2.15;;;;;;;25.47;41.65;100822.66;10435822;28;20179;-77
2022/09/03 16:17:26;;;;;;;5.25;1.85;;;;;;;25.25;41.81;100823.84;10449165;28;20076;-77
2022/09/03 16:22:28;;;;;;;5.05;2.50;;;;;;;25.19;41.89;100828.38;10461730;28;20094;-78
2022/09/03 16:27:55;;;;;;;3.92;1.90;;;;;;;25.38;41.30;100824.56;10461917;28;20060;-78
2022/09/03 16:33:17;;;;;;;5.03;2.70;;;;;;;25.61;40.80;100824.25;10392446;28;20052;-79
2022/09/03 16:38:43;;;;;;;4.38;2.40;;;;;;;25.71;40.13;100815.16;10398029;28;20041;-78
2022/09/03 16:43:52;;;;;;;2.97;2.13;;;;;;;25.66;40.28;100830.41;10438945;28;20432;-78
2022/09/03 16:49:09;;;;;;;3.67;2.72;;;;;;;25.48;41.05;100829.78;10433969;28;20040;-78
2022/09/03 16:54:25;;;;;;;5.30;2.20;;;;;;;25.06;42.11;100830.34;10438906;28;20057;-79
2022/09/03 16:59:41;;;;;;;6.40;2.80;;;;;;;24.90;43.11;100832.31;10396074;28;20037;-79
2022/09/03 17:05:06;;;;;;;3.83;2.58;;;;;;;24.65;43.61;100837.06;10415683;28;20094;-79
2022/09/03 17:10:18;;;;;;;4.38;2.50;;;;;;;24.30;44.34;100833.84;10480749;28;20135;-78
2022/09/03 17:15:41;;;;;;;3.05;2.25;;;;;;;23.89;45.55;100844.00;10432815;28;20060;-77
2022/09/03 17:20:49;;;;;;;3.78;2.72;;;;;;;23.63;46.32;100848.66;10438398;28;20087;-76
2022/09/03 17:25:57;;;;;;;5.88;2.80;;;;;;;23.27;48.00;100847.09;10433885;28;20041;-75
2022/09/03 17:30:58;;;;;;;3.28;2.28;;;;;;;22.94;49.80;100846.31;10431318;28;20091;-76
2022/09/03 17:36:07;;;;;;;4.60;2.80;;;;;;;22.44;51.93;100853.53;10443670;28;20496;-75
2022/09/03 17:41:25;;;;;;;4.32;2.78;;;;;;;22.01;53.20;100854.47;10443959;28;20040;-75
2022/09/03 17:46:48;;;;;;;4.50;3.35;;;;;;;21.51;54.99;100861.44;10428751;28;20444;-75
2022/09/03 17:51:50;;;;;;;4.53;3.15;;;;;;;21.13;56.71;100864.00;10428043;28;20029;-76
2022/09/03 17:57:13;;;;;;;4.45;2.90;;;;;;;20.78;58.01;100870.03;10419671;28;20041;-76
2022/09/03 18:02:13;;;;;;;;;;;;;;;20.52;60.51;100889.34;10439970;28;20044;-77
2022/09/03 18:07:48;;;;;;;4.73;3.47;;;;;;;20.32;60.19;100899.84;10442921;28;19928;-78
2022/09/03 18:12:50;;;;;;;3.75;3.03;;;;;;;20.06;61.37;100902.28;10443929;28;20283;-79
2022/09/03 18:17:52;;;;;;;11.07;3.53;;;;;;;19.80;63.11;100908.19;10442730;28;20044;-79
2022/09/03 20:11:26;;;;;;;8.10;5.95;;;;;;;16.63;78.39;101020.88;10467644;28;20048;-76
2022/09/03 20:16:47;;;;;;;7.70;4.82;;;;;;;16.56;80.02;101026.00;10466149;28;20471;-75
2022/09/03 20:21:49;;;;;;;6.82;4.22;;;;;;;16.63;79.92;101032.31;10480947;28;20040;-75
2022/09/03 20:27:12;;;;;;;5.85;4.57;;;;;;;16.65;79.64;101035.88;10464031;28;20021;-76
2022/09/03 20:32:16;;;;;;;6.18;4.50;;;;;;;16.63;79.63;101040.25;10479958;28;20041;-76
2022/09/03 20:37:37;;;;;;;6.63;4.72;;;;;;;16.58;79.31;101048.06;10482110;28;20071;-76
2022/09/03 20:43:12;;;;;;;5.18;3.78;;;;;;;16.50;80.29;101051.34;10481325;28;20047;-76
2022/09/03 20:48:22;;;;;;;5.22;4.57;;;;;;;16.51;80.66;101056.69;10418299;28;20049;-75
2022/09/03 20:53:32;;;;;;;6.22;4.85;;;;;;;16.63;80.71;101052.56;10442491;28;20033;-76
2022/09/03 20:58:42;;;;;;;6.35;4.70;;;;;;;16.53;80.74;101059.34;10447786;28;20045;-76
2022/09/03 21:04:00;;;;;;;9.45;4.90;;;;;;;16.53;81.36;101070.84;10448451;28;20034;-76
2022/09/03 21:09:23;;;;;;;5.50;4.20;;;;;;;16.53;82.62;101076.13;10448588;28;20060;-76
2022/09/03 21:14:52;;;;;;;6.45;4.35;;;;;;;16.52;82.04;101081.34;10446527;28;20431;-76
2022/09/03 21:20:30;;;;;;;8.73;4.90;;;;;;;16.38;82.52;101086.28;10451234;28;20090;-75
2022/09/03 21:25:41;;;;;;;8.07;5.40;;;;;;;16.14;82.81;101082.97;10487822;28;20380;-76
2022/09/03 21:30:45;;;;;;;5.68;4.03;;;;;;;16.03;84.37;101086.19;10469694;28;20366;-76
2022/09/03 21:35:52;;;;;;;8.27;6.63;;;;;;;16.02;85.04;101090.53;10470995;28;20039;-77
2022/09/03 21:41:07;;;;;;;8.45;5.38;;;;;;;15.92;86.33;101084.13;10488312;28;20028;-77
2022/09/03 21:46:14;;;;;;;7.22;4.57;;;;;;;15.85;86.57;101092.69;10486916;28;20128;-77
2022/09/03 21:51:35;;;;;;;6.03;3.83;;;;;;;15.82;87.11;101103.13;10453489;28;20067;-77
2022/09/03 21:56:39;;;;;;;6.03;4.10;;;;;;;15.65;87.45;101099.97;10487132;28;20419;-77
2022/09/03 22:01:49;;;;;;;5.47;3.95;;;;;;;15.71;88.51;101105.44;10467014;28;20052;-78
2022/09/03 22:06:59;;;;;;;7.43;4.20;;;;;;;15.54;88.62;101103.19;10451353;28;20033;-78
2022/09/03 22:12:02;;;;;;;8.18;4.55;;;;;;;15.39;88.89;101108.88;10446553;28;20036;-78
2022/09/03 22:17:09;;;;;;;6.97;4.22;;;;;;;15.27;89.95;101117.28;10445234;28;20492;-78
2022/09/03 22:22:18;;;;;;;5.38;4.07;;;;;;;15.13;90.30;101123.84;10444300;28;20052;-77
2022/09/03 22:27:27;;;;;;;7.40;4.57;;;;;;;15.05;91.11;101120.97;10385332;28;20120;-78
2022/09/03 22:32:36;;;;;;;6.50;5.72;;;;;;;14.97;92.38;101125.09;10363357;28;20510;-77
2022/09/03 22:37:52;;;;;;;8.43;5.78;;;;;;;14.82;92.94;101126.34;10399650;28;20540;-78
2022/09/03 22:42:57;;;;;;;8.20;4.95;;;;;;;14.79;94.41;101120.97;10441278;28;20103;-77
2022/09/03 22:48:12;;;;;;;6.55;5.03;;;;;;;14.80;95.59;101117.50;10442614;28;20044;-78
2022/09/03 22:53:19;;;;;;;7.40;5.25;;;;;;;14.78;95.58;101124.47;10443787;28;20088;-77
2022/09/03 22:58:25;;;;;;;7.47;5.70;;;;;;;14.70;95.45;101114.47;10443826;28;20091;-78
2022/09/03 23:03:49;;;;;;;7.78;5.22;;;;;;;14.68;94.96;101130.22;10481418;28;20049;-78
2022/09/03 23:09:07;;;;;;;6.47;4.95;;;;;;;14.50;96.23;101134.00;10418646;28;20078;-78
2022/09/03 23:14:14;;;;;;;7.82;5.35;;;;;;;14.35;96.98;101141.34;10450534;28;20033;-79
2022/09/03 23:19:20;;;;;;;8.68;5.43;;;;;;;14.33;97.77;101145.66;10418901;28;20033;-79
2022/09/03 23:24:30;;;;;;;7.28;5.53;;;;;;;14.38;98.65;101139.69;10449399;28;20047;-79
2022/09/03 23:29:33;;;;;;;7.15;5.30;;;;;;;14.37;98.15;101143.16;10489189;28;20036;-79
2022/09/03 23:34:34;;;;;;;14.73;6.85;;;;;;;14.39;98.50;101148.50;10453187;28;20471;-77
2022/09/03 23:39:34;;;;;;;7.65;5.47;;;;;;;14.40;98.55;101152.94;10459077;28;20033;-79
2022/09/03 23:45:20;;;;;;;7.38;6.15;;;;;;;14.33;98.31;101154.44;10483060;28;20048;-79
2022/09/03 23:50:27;;;;;;;5.70;4.40;;;;;;;14.13;98.37;101160.69;10460936;28;20045;-79
2022/09/03 23:55:28;;;;;;;8.48;5.28;;;;;;;13.97;98.56;101161.84;10481120;28;20094;-79
